sensor_id;sensor_type;location;lat;lon;timestamp;pressure;altitude;pressure_sealevel;temperature;humidity
3206;BME280;1615;53.602;11.418;2022-08-23T00:00:43;101368.72;;;19.94;100.00
3206;BME280;1615;53.602;11.418;2022-08-23T00:03:09;101394.03;;;20.01;100.00
3206;BME280;1615;53.602;11.418;2022-08-23T00:05:34;101354.28;;;19.60;100.00
3206;BME280;1615;53.602;11.418;2022-08-23T00:07:59;101385.56;;;19.98;100.00
3206;BME280;1615;53.602;11.418;2022-08-23T00:10:25;101383.28;;;20.00;100.00
3206;BME280;1615;53.602;11.418;2022-08-23T00:12:50;101380.00;;;19.98;100.00
3206;BME280;1615;53.602;11.418;2022-08-23T00:15:18;101379.53;;;19.96;100.00
3206;BME280;1615;53.602;11.418;2022-08-23T00:17:43;101476.47;;;19.94;100.00
3206;BME280;1615;53.602;11.418;2022-08-23T00:20:11;101378.13;;;19.90;100.00
3206;BME280;1615;53.602;11.418;2022-08-23T00:22:38;101371.63;;;19.98;100.00
3206;BME280;1615;53.602;11.418;2022-08-23T00:25:06;101349.53;;;19.81;100.00
3206;BME280;1615;53.602;11.418;2022-08-23T00:27:31;101379.00;;;19.82;100.00
3206;BME280;1615;53.602;11.418;2022-08-23T00:29:57;101325.50;;;19.56;100.00
3206;BME280;1615;53.602;11.418;2022-08-23T00:32:30;101358.91;;;19.76;100.00
3206;BME280;1615;53.602;11.418;2022-08-23T00:34:57;101377.75;;;19.91;100.00
3206;BME280;1615;53.602;11.418;2022-08-23T00:37:23;101368.56;;;19.79;100.00
3206;BME280;1615;53.602;11.418;2022-08-23T00:39:49;101377.38;;;19.81;100.00
3206;BME280;1615;53.602;11.418;2022-08-23T00:42:32;101371.06;;;19.92;100.00
3206;BME280;1615;53.602;11.418;2022-08-23T00:45:25;101370.84;;;19.77;100.00
3206;BME280;1615;53.602;11.418;2022-08-23T00:48:11;101344.78;;;19.61;100.00
3206;BME280;1615;53.602;11.418;2022-08-23T00:50:48;101360.25;;;19.70;100.00
3206;BME280;1615;53.602;11.418;2022-08-23T00:53:27;101283.25;;;19.21;100.00
3206;BME280;1615;53.602;11.418;2022-08-23T00:55:58;101369.34;;;19.59;100.00
3206;BME280;1615;53.602;11.418;2022-08-23T00:58:25;101375.59;;;19.56;100.00
3206;BME280;1615;53.602;11.418;2022-08-23T01:00:52;101366.84;;;19.66;100.00
3206;BME280;1615;53.602;11.418;2022-08-23T01:03:18;101368.97;;;19.69;100.00
3206;BME280;1615;53.602;11.418;2022-08-23T01:08:55;101294.41;;;19.13;100.00
3206;BME280;1615;53.602;11.418;2022-08-23T01:11:33;101315.47;;;19.22;100.00
3206;BME280;1615;53.602;11.418;2022-08-23T01:14:11;101364.47;;;19.56;100.00
3206;BME280;1615;53.602;11.418;2022-08-23T01:16:45;101370.31;;;19.63;100.00
3206;BME280;1615;53.602;11.418;2022-08-23T01:19:27;101368.97;;;19.69;100.00
3206;BME280;1615;53.602;11.418;2022-08-23T01:22:04;101369.41;;;19.71;100.00
3206;BME280;1615;53.602;11.418;2022-08-23T01:24:32;101367.75;;;19.58;100.00
3206;BME280;1615;53.602;11.418;2022-08-23T01:26:57;101374.38;;;19.65;100.00
3206;BME280;1615;53.602;11.418;2022-08-23T01:29:23;101372.19;;;19.71;100.00
3206;BME280;1615;53.602;11.418;2022-08-23T01:31:49;101383.47;;;19.54;100.00
3206;BME280;1615;53.602;11.418;2022-08-23T01:34:14;101384.81;;;19.48;100.00
3206;BME280;1615;53.602;11.418;2022-08-23T01:36:42;101387.59;;;19.48;100.00
3206;BME280;1615;53.602;11.418;2022-08-23T01:39:09;101387.53;;;19.56;100.00
3206;BME280;1615;53.602;11.418;2022-08-23T01:41:34;101389.44;;;19.44;100.00
3206;BME280;1615;53.602;11.418;2022-08-23T01:44:03;101387.81;;;19.43;100.00
3206;BME280;1615;53.602;11.418;2022-08-23T01:46:29;101387.31;;;19.41;100.00
3206;BME280;1615;53.602;11.418;2022-08-23T01:48:55;101388.75;;;19.47;100.00
3206;BME280;1615;53.602;11.418;2022-08-23T01:51:21;101383.88;;;19.44;100.00
3206;BME280;1615;53.602;11.418;2022-08-23T01:53:46;101329.50;;;18.97;100.00
3206;BME280;1615;53.602;11.418;2022-08-23T01:56:14;101392.41;;;19.39;100.00
3206;BME280;1615;53.602;11.418;2022-08-23T01:58:40;101308.53;;;18.79;100.00
3206;BME280;1615;53.602;11.418;2022-08-23T02:01:06;101394.13;;;19.23;100.00
3206;BME280;1615;53.602;11.418;2022-08-23T02:03:32;101325.66;;;18.81;100.00
3206;BME280;1615;53.602;11.418;2022-08-23T02:05:59;101398.69;;;19.27;100.00
3206;BME280;1615;53.602;11.418;2022-08-23T02:08:25;101308.25;;;18.72;100.00
3206;BME280;1615;53.602;11.418;2022-08-23T02:11:11;101389.69;;;19.30;100.00
3206;BME280;1615;53.602;11.418;2022-08-23T02:13:37;101391.06;;;19.45;100.00
3206;BME280;1615;53.602;11.418;2022-08-23T02:16:03;101383.88;;;19.44;100.00
3206;BME280;1615;53.602;11.418;2022-08-23T02:18:30;101293.56;;;18.92;100.00
3206;BME280;1615;53.602;11.418;2022-08-23T02:20:56;101386.78;;;19.47;100.00
3206;BME280;1615;53.602;11.418;2022-08-23T02:23:21;101384.81;;;19.48;100.00
3206;BME280;1615;53.602;11.418;2022-08-23T02:25:48;101244.31;;;18.43;100.00
3206;BME280;1615;53.602;11.418;2022-08-23T02:28:15;101338.41;;;19.11;100.00
3206;BME280;1615;53.602;11.418;2022-08-23T02:30:43;101347.41;;;19.08;100.00
3206;BME280;1615;53.602;11.418;2022-08-23T02:33:09;101393.47;;;19.26;100.00
3206;BME280;1615;53.602;11.418;2022-08-23T02:35:34;101401.53;;;19.10;100.00
3206;BME280;1615;53.602;11.418;2022-08-23T02:38:09;101391.59;;;19.01;100.00
3206;BME280;1615;53.602;11.418;2022-08-23T02:40:36;101400.41;;;19.03;100.00
3206;BME280;1615;53.602;11.418;2022-08-23T02:43:02;101396.78;;;19.11;100.00
3206;BME280;1615;53.602;11.418;2022-08-23T02:45:28;101398.66;;;18.98;100.00
3206;BME280;1615;53.602;11.418;2022-08-23T02:47:54;101393.75;;;18.95;100.00
3206;BME280;1615;53.602;11.418;2022-08-23T02:50:19;101395.72;;;18.95;100.00
3206;BME280;1615;53.602;11.418;2022-08-23T02:52:46;101401.75;;;18.97;100.00
3206;BME280;1615;53.602;11.418;2022-08-23T02:55:11;101392.13;;;18.94;100.00
3206;BME280;1615;53.602;11.418;2022-08-23T02:57:36;101399.75;;;19.06;100.00
3206;BME280;1615;53.602;11.418;2022-08-23T03:00:05;101337.81;;;18.68;100.00
3206;BME280;1615;53.602;11.418;2022-08-23T03:02:31;101398.13;;;19.05;100.00
3206;BME280;1615;53.602;11.418;2022-08-23T03:04:56;101396.84;;;19.02;100.00
3206;BME280;1615;53.602;11.418;2022-08-23T03:07:22;101405.69;;;18.96;100.00
3206;BME280;1615;53.602;11.418;2022-08-23T03:09:47;101412.06;;;18.96;100.00
3206;BME280;1615;53.602;11.418;2022-08-23T03:12:12;101408.31;;;18.92;100.00
3206;BME280;1615;53.602;11.418;2022-08-23T03:14:38;101414.88;;;18.88;100.00
3206;BME280;1615;53.602;11.418;2022-08-23T03:17:04;101413.41;;;18.82;100.00
3206;BME280;1615;53.602;11.418;2022-08-23T03:19:30;101410.63;;;18.82;100.00
3206;BME280;1615;53.602;11.418;2022-08-23T03:21:55;101414.09;;;18.79;100.00
3206;BME280;1615;53.602;11.418;2022-08-23T03:24:20;101418.03;;;18.78;100.00
3206;BME280;1615;53.602;11.418;2022-08-23T03:26:46;101421.44;;;18.75;100.00
3206;BME280;1615;53.602;11.418;2022-08-23T03:29:12;101425.06;;;18.75;100.00
3206;BME280;1615;53.602;11.418;2022-08-23T03:31:38;101428.50;;;18.72;100.00
3206;BME280;1615;53.602;11.418;2022-08-23T03:34:04;101427.50;;;18.68;100.00
3206;BME280;1615;53.602;11.418;2022-08-23T03:36:29;101429.00;;;18.66;100.00
3206;BME280;1615;53.602;11.418;2022-08-23T03:38:55;101426.22;;;18.66;100.00
3206;BME280;1615;53.602;11.418;2022-08-23T03:41:20;101433.09;;;18.60;100.00
3206;BME280;1615;53.602;11.418;2022-08-23T03:43:46;101434.53;;;18.66;100.00
3206;BME280;1615;53.602;11.418;2022-08-23T03:46:11;101436.97;;;18.76;100.00
3206;BME280;1615;53.602;11.418;2022-08-23T03:48:52;101435.03;;;18.76;100.00
3206;BME280;1615;53.602;11.418;2022-08-23T03:51:19;101436.50;;;18.74;100.00
3206;BME280;1615;53.602;11.418;2022-08-23T03:53:45;101419.81;;;18.74;100.00
3206;BME280;1615;53.602;11.418;2022-08-23T03:56:21;101320.00;;;18.06;100.00
3206;BME280;1615;53.602;11.418;2022-08-23T03:58:46;101440.41;;;18.81;100.00
3206;BME280;1615;53.602;11.418;2022-08-23T04:01:12;101443.31;;;18.85;100.00
3206;BME280;1615;53.602;11.418;2022-08-23T04:03:37;101447.91;;;18.81;100.00
3206;BME280;1615;53.602;11.418;2022-08-23T04:06:03;101375.00;;;18.29;100.00
3206;BME280;1615;53.602;11.418;2022-08-23T04:08:28;101445.63;;;18.83;100.00
3206;BME280;1615;53.602;11.418;2022-08-23T04:10:54;101441.88;;;18.79;100.00
3206;BME280;1615;53.602;11.418;2022-08-23T04:13:19;101447.75;;;18.77;100.00
3206;BME280;1615;53.602;11.418;2022-08-23T04:15:44;101453.63;;;18.76;100.00
3206;BME280;1615;53.602;11.418;2022-08-23T04:18:10;101451.25;;;18.49;100.00
3206;BME280;1615;53.602;11.418;2022-08-23T04:20:35;101455.47;;;18.72;100.00
3206;BME280;1615;53.602;11.418;2022-08-23T04:23:00;101460.19;;;18.71;100.00
3206;BME280;1615;53.602;11.418;2022-08-23T04:25:27;101463.66;;;18.60;100.00
3206;BME280;1615;53.602;11.418;2022-08-23T04:27:53;101465.63;;;18.34;100.00
3206;BME280;1615;53.602;11.418;2022-08-23T04:30:18;101473.16;;;18.42;100.00
3206;BME280;1615;53.602;11.418;2022-08-23T04:32:44;101471.81;;;18.65;100.00
3206;BME280;1615;53.602;11.418;2022-08-23T04:35:09;101473.00;;;18.47;100.00
3206;BME280;1615;53.602;11.418;2022-08-23T04:37:36;101475.78;;;18.47;100.00
3206;BME280;1615;53.602;11.418;2022-08-23T04:40:01;101481.47;;;18.50;100.00
3206;BME280;1615;53.602;11.418;2022-08-23T04:42:45;101480.47;;;18.72;100.00
3206;BME280;1615;53.602;11.418;2022-08-23T04:45:10;101485.56;;;18.44;100.00
3206;BME280;1615;53.602;11.418;2022-08-23T04:47:35;101485.06;;;18.59;100.00
3206;BME280;1615;53.602;11.418;2022-08-23T04:50:04;101476.22;;;18.66;100.00
3206;BME280;1615;53.602;11.418;2022-08-23T04:52:30;101375.19;;;18.07;100.00
3206;BME280;1615;53.602;11.418;2022-08-23T04:54:55;101482.75;;;18.70;100.00
3206;BME280;1615;53.602;11.418;2022-08-23T04:57:20;101480.28;;;18.77;100.00
3206;BME280;1615;53.602;11.418;2022-08-23T04:59:46;101478.78;;;18.79;100.00
3206;BME280;1615;53.602;11.418;2022-08-23T05:02:11;101488.44;;;18.82;100.00
3206;BME280;1615;53.602;11.418;2022-08-23T05:04:37;101486.97;;;18.84;100.00
3206;BME280;1615;53.602;11.418;2022-08-23T05:07:02;101485.84;;;18.85;100.00
3206;BME280;1615;53.602;11.418;2022-08-23T05:09:28;101495.94;;;18.90;100.00
3206;BME280;1615;53.602;11.418;2022-08-23T05:11:55;101491.38;;;18.94;100.00
3206;BME280;1615;53.602;11.418;2022-08-23T05:14:20;101473.03;;;18.93;100.00
3206;BME280;1615;53.602;11.418;2022-08-23T05:16:46;101496.03;;;19.10;100.00
3206;BME280;1615;53.602;11.418;2022-08-23T05:19:11;101468.44;;;18.97;100.00
3206;BME280;1615;53.602;11.418;2022-08-23T05:21:36;101476.91;;;19.09;100.00
3206;BME280;1615;53.602;11.418;2022-08-23T05:24:02;101501.72;;;19.31;100.00
3206;BME280;1615;53.602;11.418;2022-08-23T05:26:27;101506.91;;;19.41;100.00
3206;BME280;1615;53.602;11.418;2022-08-23T05:28:53;101496.88;;;19.48;100.00
3206;BME280;1615;53.602;11.418;2022-08-23T05:31:23;101491.78;;;19.59;100.00
3206;BME280;1615;53.602;11.418;2022-08-23T05:33:49;101486.75;;;19.73;100.00
3206;BME280;1615;53.602;11.418;2022-08-23T05:36:16;101500.22;;;19.91;100.00
3206;BME280;1615;53.602;11.418;2022-08-23T05:38:43;101507.97;;;20.06;100.00
3206;BME280;1615;53.602;11.418;2022-08-23T05:41:09;101501.72;;;20.18;100.00
3206;BME280;1615;53.602;11.418;2022-08-23T05:43:35;101498.66;;;20.31;100.00
3206;BME280;1615;53.602;11.418;2022-08-23T05:46:05;101498.78;;;20.35;100.00
3206;BME280;1615;53.602;11.418;2022-08-23T05:48:32;101449.34;;;20.11;100.00
3206;BME280;1615;53.602;11.418;2022-08-23T05:51:07;101447.22;;;20.29;100.00
3206;BME280;1615;53.602;11.418;2022-08-23T05:53:33;101500.44;;;20.68;100.00
3206;BME280;1615;53.602;11.418;2022-08-23T05:56:28;101413.72;;;20.37;100.00
3206;BME280;1615;53.602;11.418;2022-08-23T05:58:55;101496.50;;;21.02;100.00
3206;BME280;1615;53.602;11.418;2022-08-23T06:01:21;101506.63;;;21.06;100.00
3206;BME280;1615;53.602;11.418;2022-08-23T06:03:47;101506.50;;;21.15;100.00
3206;BME280;1615;53.602;11.418;2022-08-23T06:06:16;101507.22;;;21.24;100.00
3206;BME280;1615;53.602;11.418;2022-08-23T06:08:42;101507.00;;;21.29;100.00
3206;BME280;1615;53.602;11.418;2022-08-23T06:11:15;101515.16;;;21.34;100.00
3206;BME280;1615;53.602;11.418;2022-08-23T06:13:44;101469.31;;;20.99;100.00
3206;BME280;1615;53.602;11.418;2022-08-23T06:16:13;101474.19;;;21.02;100.00
3206;BME280;1615;53.602;11.418;2022-08-23T06:18:39;101511.88;;;21.32;100.00
3206;BME280;1615;53.602;11.418;2022-08-23T06:21:07;101511.66;;;21.37;100.00
3206;BME280;1615;53.602;11.418;2022-08-23T06:23:34;101496.75;;;21.21;100.00
3206;BME280;1615;53.602;11.418;2022-08-23T06:26:00;101510.97;;;21.52;100.00
3206;BME280;1615;53.602;11.418;2022-08-23T06:28:27;101512.84;;;21.60;100.00
3206;BME280;1615;53.602;11.418;2022-08-23T06:30:55;101514.16;;;21.74;100.00
3206;BME280;1615;53.602;11.418;2022-08-23T06:33:21;101513.31;;;21.74;100.00
3206;BME280;1615;53.602;11.418;2022-08-23T06:35:47;101545.66;;;21.75;100.00
3206;BME280;1615;53.602;11.418;2022-08-23T06:38:13;101513.53;;;21.81;100.00
3206;BME280;1615;53.602;11.418;2022-08-23T06:40:39;101504.94;;;21.86;100.00
3206;BME280;1615;53.602;11.418;2022-08-23T06:43:04;101519.78;;;22.02;100.00
3206;BME280;1615;53.602;11.418;2022-08-23T06:45:29;101513.50;;;22.17;100.00
3206;BME280;1615;53.602;11.418;2022-08-23T06:47:56;101507.25;;;22.08;100.00
3206;BME280;1615;53.602;11.418;2022-08-23T06:50:21;101500.94;;;22.11;100.00
3206;BME280;1615;53.602;11.418;2022-08-23T06:52:48;101508.59;;;22.26;100.00
3206;BME280;1615;53.602;11.418;2022-08-23T06:55:14;101524.66;;;22.17;100.00
3206;BME280;1615;53.602;11.418;2022-08-23T06:57:39;101513.25;;;22.22;100.00
3206;BME280;1615;53.602;11.418;2022-08-23T07:00:05;101512.41;;;22.33;100.00
3206;BME280;1615;53.602;11.418;2022-08-23T07:02:31;101493.47;;;22.15;100.00
3206;BME280;1615;53.602;11.418;2022-08-23T07:04:57;101515.09;;;22.30;100.00
3206;BME280;1615;53.602;11.418;2022-08-23T07:07:22;101518.19;;;22.52;100.00
3206;BME280;1615;53.602;11.418;2022-08-23T07:09:48;101521.03;;;22.68;100.00
3206;BME280;1615;53.602;11.418;2022-08-23T07:12:13;101522.47;;;22.62;100.00
3206;BME280;1615;53.602;11.418;2022-08-23T07:14:39;101518.75;;;22.58;100.00
3206;BME280;1615;53.602;11.418;2022-08-23T07:17:06;101518.84;;;22.89;100.00
3206;BME280;1615;53.602;11.418;2022-08-23T07:19:34;101517.59;;;23.02;100.00
3206;BME280;1615;53.602;11.418;2022-08-23T07:22:01;101516.81;;;23.17;100.00
3206;BME280;1615;53.602;11.418;2022-08-23T07:24:27;101221.06;;;21.35;100.00
3206;BME280;1615;53.602;11.418;2022-08-23T07:26:55;101518.84;;;23.32;100.00
3206;BME280;1615;53.602;11.418;2022-08-23T07:29:21;101525.34;;;23.36;100.00
3206;BME280;1615;53.602;11.418;2022-08-23T07:31:51;101521.16;;;23.30;100.00
3206;BME280;1615;53.602;11.418;2022-08-23T07:34:17;101459.19;;;22.85;100.00
3206;BME280;1615;53.602;11.418;2022-08-23T07:36:44;101485.66;;;23.03;100.00
3206;BME280;1615;53.602;11.418;2022-08-23T07:39:10;101422.19;;;22.76;100.00
3206;BME280;1615;53.602;11.418;2022-08-23T07:41:36;101519.13;;;23.58;100.00
3206;BME280;1615;53.602;11.418;2022-08-23T07:44:04;101500.38;;;23.62;100.00
3206;BME280;1615;53.602;11.418;2022-08-23T07:46:31;101523.16;;;23.76;100.00
3206;BME280;1615;53.602;11.418;2022-08-23T07:48:58;101526.03;;;23.79;100.00
3206;BME280;1615;53.602;11.418;2022-08-23T07:51:28;101526.56;;;23.85;100.00
3206;BME280;1615;53.602;11.418;2022-08-23T07:53:53;101534.50;;;23.83;100.00
3206;BME280;1615;53.602;11.418;2022-08-23T07:56:20;101533.19;;;23.92;100.00
3206;BME280;1615;53.602;11.418;2022-08-23T07:58:46;101530.75;;;23.91;100.00
3206;BME280;1615;53.602;11.418;2022-08-23T08:01:17;101536.50;;;23.98;100.00
3206;BME280;1615;53.602;11.418;2022-08-23T08:03:47;101533.44;;;24.03;100.00
3206;BME280;1615;53.602;11.418;2022-08-23T08:06:23;101492.78;;;23.78;100.00
3206;BME280;1615;53.602;11.418;2022-08-23T08:08:49;101512.47;;;23.97;100.00
3206;BME280;1615;53.602;11.418;2022-08-23T08:11:18;101538.13;;;23.99;100.00
3206;BME280;1615;53.602;11.418;2022-08-23T08:13:45;101433.88;;;23.40;100.00
3206;BME280;1615;53.602;11.418;2022-08-23T08:16:23;101527.25;;;24.13;100.00
3206;BME280;1615;53.602;11.418;2022-08-23T08:18:50;101542.75;;;24.07;100.00
3206;BME280;1615;53.602;11.418;2022-08-23T08:21:16;101519.41;;;24.03;100.00
3206;BME280;1615;53.602;11.418;2022-08-23T08:23:42;101473.78;;;23.87;100.00
3206;BME280;1615;53.602;11.418;2022-08-23T08:26:09;101536.84;;;24.12;100.00
3206;BME280;1615;53.602;11.418;2022-08-23T08:28:36;101534.06;;;24.12;100.00
3206;BME280;1615;53.602;11.418;2022-08-23T08:31:02;101539.53;;;24.24;100.00
3206;BME280;1615;53.602;11.418;2022-08-23T08:33:28;101529.94;;;24.25;100.00
3206;BME280;1615;53.602;11.418;2022-08-23T08:35:55;101454.22;;;23.71;100.00
3206;BME280;1615;53.602;11.418;2022-08-23T08:38:20;101524.88;;;24.15;100.00
3206;BME280;1615;53.602;11.418;2022-08-23T08:40:49;101535.09;;;24.23;100.00
3206;BME280;1615;53.602;11.418;2022-08-23T08:48:42;101544.69;;;24.41;100.00
3206;BME280;1615;53.602;11.418;2022-08-23T08:54:20;101529.00;;;24.36;100.00
3206;BME280;1615;53.602;11.418;2022-08-23T08:56:53;101480.63;;;24.05;100.00
3206;BME280;1615;53.602;11.418;2022-08-23T08:59:30;101526.34;;;24.43;100.00
3206;BME280;1615;53.602;11.418;2022-08-23T09:02:00;101526.47;;;24.50;100.00
3206;BME280;1615;53.602;11.418;2022-08-23T09:04:26;101450.91;;;24.00;100.00
3206;BME280;1615;53.602;11.418;2022-08-23T09:07:18;101518.00;;;24.47;100.00
3206;BME280;1615;53.602;11.418;2022-08-23T09:10:18;101515.44;;;24.57;100.00
3206;BME280;1615;53.602;11.418;2022-08-23T09:13:05;101511.00;;;24.56;100.00
3206;BME280;1615;53.602;11.418;2022-08-23T09:18:15;101528.59;;;24.72;100.00
3206;BME280;1615;53.602;11.418;2022-08-23T09:20:42;101451.69;;;24.35;100.00
3206;BME280;1615;53.602;11.418;2022-08-23T09:23:14;101524.72;;;24.80;100.00
3206;BME280;1615;53.602;11.418;2022-08-23T09:25:50;101523.19;;;24.83;100.00
3206;BME280;1615;53.602;11.418;2022-08-23T09:28:16;101508.03;;;24.87;100.00
3206;BME280;1615;53.602;11.418;2022-08-23T09:30:55;101503.31;;;24.91;100.00
3206;BME280;1615;53.602;11.418;2022-08-23T09:33:31;101516.31;;;24.99;100.00
3206;BME280;1615;53.602;11.418;2022-08-23T09:38:28;101515.88;;;25.20;100.00
3206;BME280;1615;53.602;11.418;2022-08-23T09:40:54;101518.41;;;25.25;97.43
3206;BME280;1615;53.602;11.418;2022-08-23T09:43:22;101493.56;;;25.27;91.94
3206;BME280;1615;53.602;11.418;2022-08-23T09:51:21;101509.41;;;25.61;93.54
3206;BME280;1615;53.602;11.418;2022-08-23T09:53:50;101513.41;;;25.60;90.39
3206;BME280;1615;53.602;11.418;2022-08-23T09:56:24;101514.56;;;25.59;90.07
3206;BME280;1615;53.602;11.418;2022-08-23T09:58:50;101518.50;;;25.77;89.19
3206;BME280;1615;53.602;11.418;2022-08-23T10:01:21;101508.56;;;25.83;83.78
3206;BME280;1615;53.602;11.418;2022-08-23T10:06:37;101490.78;;;25.75;83.04
3206;BME280;1615;53.602;11.418;2022-08-23T10:09:04;101503.69;;;25.80;83.12
3206;BME280;1615;53.602;11.418;2022-08-23T10:11:44;101504.34;;;25.96;84.32
3206;BME280;1615;53.602;11.418;2022-08-23T10:14:16;101503.69;;;26.06;79.82
3206;BME280;1615;53.602;11.418;2022-08-23T10:17:10;101405.56;;;25.42;78.08
3206;BME280;1615;53.602;11.418;2022-08-23T10:30:24;101416.38;;;25.66;76.27
3206;BME280;1615;53.602;11.418;2022-08-23T10:33:16;101484.56;;;26.15;76.22
3206;BME280;1615;53.602;11.418;2022-08-23T10:36:19;101479.81;;;26.19;74.74
3206;BME280;1615;53.602;11.418;2022-08-23T10:41:37;101473.13;;;26.30;77.85
3206;BME280;1615;53.602;11.418;2022-08-23T10:44:18;101477.38;;;26.50;78.13
3206;BME280;1615;53.602;11.418;2022-08-23T10:47:10;101464.47;;;26.46;75.73
3206;BME280;1615;53.602;11.418;2022-08-23T10:49:39;101470.75;;;26.32;75.26
3206;BME280;1615;53.602;11.418;2022-08-23T10:52:08;101468.00;;;26.39;78.65
3206;BME280;1615;53.602;11.418;2022-08-23T10:54:38;101475.41;;;26.51;76.75
3206;BME280;1615;53.602;11.418;2022-08-23T10:57:15;101472.69;;;26.58;75.89
3206;BME280;1615;53.602;11.418;2022-08-23T10:59:44;101464.81;;;26.41;72.81
3206;BME280;1615;53.602;11.418;2022-08-23T11:02:26;101454.31;;;26.38;69.97
3206;BME280;1615;53.602;11.418;2022-08-23T11:05:16;101467.31;;;26.46;72.35
3206;BME280;1615;53.602;11.418;2022-08-23T11:07:41;101474.00;;;26.38;70.76
3206;BME280;1615;53.602;11.418;2022-08-23T11:13:01;101468.91;;;26.47;72.68
3206;BME280;1615;53.602;11.418;2022-08-23T11:15:38;101344.19;;;25.70;72.28
3206;BME280;1615;53.602;11.418;2022-08-23T11:20:55;101476.91;;;26.45;72.19
3206;BME280;1615;53.602;11.418;2022-08-23T11:23:39;101477.69;;;26.42;70.30
3206;BME280;1615;53.602;11.418;2022-08-23T11:26:09;101468.09;;;26.46;72.17
3206;BME280;1615;53.602;11.418;2022-08-23T11:28:44;101472.34;;;26.63;75.81
3206;BME280;1615;53.602;11.418;2022-08-23T11:33:58;101466.78;;;26.70;68.06
3206;BME280;1615;53.602;11.418;2022-08-23T11:36:26;101466.78;;;26.70;69.66
3206;BME280;1615;53.602;11.418;2022-08-23T11:41:31;101468.00;;;26.69;67.01
3206;BME280;1615;53.602;11.418;2022-08-23T11:46:37;101468.25;;;26.57;70.14
3206;BME280;1615;53.602;11.418;2022-08-23T11:52:33;101468.75;;;26.66;73.08
3206;BME280;1615;53.602;11.418;2022-08-23T11:55:24;101432.88;;;26.56;71.16
3206;BME280;1615;53.602;11.418;2022-08-23T12:01:01;101464.16;;;26.84;66.82
3206;BME280;1615;53.602;11.418;2022-08-23T12:03:40;101469.44;;;26.89;67.89
3206;BME280;1615;53.602;11.418;2022-08-23T12:11:20;101457.38;;;26.92;65.75
3206;BME280;1615;53.602;11.418;2022-08-23T12:13:59;101455.69;;;26.84;66.04
3206;BME280;1615;53.602;11.418;2022-08-23T12:16:30;101455.34;;;26.89;64.53
3206;BME280;1615;53.602;11.418;2022-08-23T12:19:00;101356.91;;;26.23;62.43
3206;BME280;1615;53.602;11.418;2022-08-23T12:24:02;101454.09;;;26.83;65.20
3206;BME280;1615;53.602;11.418;2022-08-23T12:29:08;101457.59;;;26.73;65.01
3206;BME280;1615;53.602;11.418;2022-08-23T12:31:57;101425.66;;;26.58;66.28
3206;BME280;1615;53.602;11.418;2022-08-23T12:34:45;101452.38;;;26.75;67.60
3206;BME280;1615;53.602;11.418;2022-08-23T12:39:56;101455.88;;;26.65;65.11
3206;BME280;1615;53.602;11.418;2022-08-23T12:42:34;101461.50;;;26.65;65.85
3206;BME280;1615;53.602;11.418;2022-08-23T12:45:17;101459.53;;;26.65;63.05
3206;BME280;1615;53.602;11.418;2022-08-23T12:48:02;101455.13;;;26.68;64.63
3206;BME280;1615;53.602;11.418;2022-08-23T12:50:32;101458.00;;;26.75;66.61
3206;BME280;1615;53.602;11.418;2022-08-23T12:53:08;101451.53;;;26.71;64.56
3206;BME280;1615;53.602;11.418;2022-08-23T12:55:41;101452.44;;;26.82;67.57
3206;BME280;1615;53.602;11.418;2022-08-23T12:58:08;101413.06;;;26.49;66.47
3206;BME280;1615;53.602;11.418;2022-08-23T13:00:38;101452.09;;;26.87;67.75
3206;BME280;1615;53.602;11.418;2022-08-23T13:03:14;101450.19;;;26.98;69.42
3206;BME280;1615;53.602;11.418;2022-08-23T13:05:42;101446.97;;;26.96;70.29
3206;BME280;1615;53.602;11.418;2022-08-23T13:08:19;101432.16;;;26.66;72.76
3206;BME280;1615;53.602;11.418;2022-08-23T13:10:45;101440.13;;;26.97;72.98
3206;BME280;1615;53.602;11.418;2022-08-23T13:13:14;101388.22;;;26.54;73.68
3206;BME280;1615;53.602;11.418;2022-08-23T13:21:23;101430.91;;;26.96;74.58
3206;BME280;1615;53.602;11.418;2022-08-23T13:23:51;101395.59;;;26.66;74.60
3206;BME280;1615;53.602;11.418;2022-08-23T13:29:00;101319.88;;;26.14;74.39
3206;BME280;1615;53.602;11.418;2022-08-23T13:31:25;101433.94;;;26.81;74.79
3206;BME280;1615;53.602;11.418;2022-08-23T13:34:29;101434.94;;;26.99;74.32
3206;BME280;1615;53.602;11.418;2022-08-23T13:36:57;101431.22;;;26.88;73.04
3206;BME280;1615;53.602;11.418;2022-08-23T13:39:23;101435.56;;;26.82;72.25
3206;BME280;1615;53.602;11.418;2022-08-23T13:41:48;101436.28;;;26.72;73.36
3206;BME280;1615;53.602;11.418;2022-08-23T13:44:17;101437.03;;;26.69;72.49
3206;BME280;1615;53.602;11.418;2022-08-23T13:46:46;101440.84;;;26.54;73.82
3206;BME280;1615;53.602;11.418;2022-08-23T13:49:15;101441.66;;;26.51;74.32
3206;BME280;1615;53.602;11.418;2022-08-23T13:54:27;101432.22;;;26.69;74.32
3206;BME280;1615;53.602;11.418;2022-08-23T13:56:59;101384.53;;;26.47;71.06
3206;BME280;1615;53.602;11.418;2022-08-23T13:59:32;101431.50;;;26.79;69.89
3206;BME280;1615;53.602;11.418;2022-08-23T14:01:59;101433.94;;;26.81;71.53
3206;BME280;1615;53.602;11.418;2022-08-23T14:04:26;101425.59;;;26.88;70.44
3206;BME280;1615;53.602;11.418;2022-08-23T14:06:51;101430.06;;;26.92;70.97
3206;BME280;1615;53.602;11.418;2022-08-23T14:09:17;101380.75;;;26.69;67.78
3206;BME280;1615;53.602;11.418;2022-08-23T14:11:43;101421.34;;;27.08;66.33
3206;BME280;1615;53.602;11.418;2022-08-23T14:14:10;101432.19;;;27.06;66.77
3206;BME280;1615;53.602;11.418;2022-08-23T14:16:36;101435.75;;;27.03;67.86
3206;BME280;1615;53.602;11.418;2022-08-23T14:19:03;101436.59;;;27.03;67.94
3206;BME280;1615;53.602;11.418;2022-08-23T14:21:29;101427.41;;;27.10;68.69
3206;BME280;1615;53.602;11.418;2022-08-23T14:23:54;101384.34;;;26.66;70.33
3206;BME280;1615;53.602;11.418;2022-08-23T14:26:19;101425.94;;;26.83;70.17